sensor_id;sensor_type;location;lat;lon;timestamp;P1;durP1;ratioP1;P2;durP2;ratioP2
9665;SDS011;4871;52.004;5.924;2023-02-22T00:00:00;19.20;;;10.70;;
9665;SDS011;4871;52.004;5.924;2023-02-22T00:01:07;19.20;;;10.70;;
9665;SDS011;4871;52.004;5.924;2023-02-22T00:02:10;19.20;;;10.70;;
9665;SDS011;4871;52.004;5.924;2023-02-22T00:03:00;19.20;;;10.70;;
9665;SDS011;4871;52.004;5.924;2023-02-22T00:04:00;19.20;;;10.70;;
9665;SDS011;4871;52.004;5.924;2023-02-22T00:05:00;19.20;;;10.70;;
9665;SDS011;4871;52.004;5.924;2023-02-22T00:06:03;19.20;;;10.70;;
9665;SDS011;4871;52.004;5.924;2023-02-22T00:07:07;19.20;;;10.70;;
9665;SDS011;4871;52.004;5.924;2023-02-22T00:08:00;19.20;;;10.70;;
9665;SDS011;4871;52.004;5.924;2023-02-22T00:09:08;19.20;;;10.70;;
9665;SDS011;4871;52.004;5.924;2023-02-22T00:10:00;19.20;;;10.70;;
9665;SDS011;4871;52.004;5.924;2023-02-22T00:11:00;19.20;;;10.70;;
9665;SDS011;4871;52.004;5.924;2023-02-22T00:12:00;19.20;;;10.70;;
9665;SDS011;4871;52.004;5.924;2023-02-22T00:13:08;19.20;;;10.70;;
9665;SDS011;4871;52.004;5.924;2023-02-22T00:14:01;19.20;;;10.70;;
9665;SDS011;4871;52.004;5.924;2023-02-22T00:15:00;19.20;;;10.70;;
9665;SDS011;4871;52.004;5.924;2023-02-22T00:16:00;19.20;;;10.70;;
9665;SDS011;4871;52.004;5.924;2023-02-22T00:17:08;19.20;;;10.70;;
9665;SDS011;4871;52.004;5.924;2023-02-22T00:18:00;19.20;;;10.70;;
9665;SDS011;4871;52.004;5.924;2023-02-22T00:19:09;19.20;;;10.70;;
9665;SDS011;4871;52.004;5.924;2023-02-22T00:20:00;19.20;;;10.70;;
9665;SDS011;4871;52.004;5.924;2023-02-22T00:21:10;19.20;;;10.70;;
9665;SDS011;4871;52.004;5.924;2023-02-22T00:22:00;19.20;;;10.70;;
9665;SDS011;4871;52.004;5.924;2023-02-22T00:23:00;19.20;;;10.70;;
9665;SDS011;4871;52.004;5.924;2023-02-22T00:24:17;19.20;;;10.70;;
9665;SDS011;4871;52.004;5.924;2023-02-22T00:25:00;19.20;;;10.70;;
9665;SDS011;4871;52.004;5.924;2023-02-22T00:26:08;19.20;;;10.70;;
9665;SDS011;4871;52.004;5.924;2023-02-22T00:27:02;20.10;;;11.30;;
9665;SDS011;4871;52.004;5.924;2023-02-22T00:28:07;20.10;;;11.30;;
9665;SDS011;4871;52.004;5.924;2023-02-22T00:29:00;20.10;;;11.30;;
9665;SDS011;4871;52.004;5.924;2023-02-22T00:30:00;20.10;;;11.30;;
9665;SDS011;4871;52.004;5.924;2023-02-22T00:31:00;20.10;;;11.30;;
9665;SDS011;4871;52.004;5.924;2023-02-22T00:32:00;20.10;;;11.30;;
9665;SDS011;4871;52.004;5.924;2023-02-22T00:33:00;20.10;;;11.30;;
9665;SDS011;4871;52.004;5.924;2023-02-22T00:34:00;20.10;;;11.30;;
9665;SDS011;4871;52.004;5.924;2023-02-22T00:35:00;20.10;;;11.30;;
9665;SDS011;4871;52.004;5.924;2023-02-22T00:36:07;20.10;;;11.30;;
9665;SDS011;4871;52.004;5.924;2023-02-22T00:37:03;20.10;;;11.30;;
9665;SDS011;4871;52.004;5.924;2023-02-22T00:38:07;20.10;;;11.30;;
9665;SDS011;4871;52.004;5.924;2023-02-22T00:39:00;20.10;;;11.30;;
9665;SDS011;4871;52.004;5.924;2023-02-22T00:40:08;20.10;;;11.30;;
9665;SDS011;4871;52.004;5.924;2023-02-22T00:41:00;20.10;;;11.30;;
9665;SDS011;4871;52.004;5.924;2023-02-22T00:42:00;20.10;;;11.30;;
9665;SDS011;4871;52.004;5.924;2023-02-22T00:43:01;20.10;;;11.30;;
9665;SDS011;4871;52.004;5.924;2023-02-22T00:44:00;20.10;;;11.30;;
9665;SDS011;4871;52.004;5.924;2023-02-22T00:45:00;20.10;;;11.30;;
9665;SDS011;4871;52.004;5.924;2023-02-22T00:46:08;20.10;;;11.30;;
9665;SDS011;4871;52.004;5.924;2023-02-22T00:47:00;20.10;;;11.30;;
9665;SDS011;4871;52.004;5.924;2023-02-22T00:48:08;20.10;;;11.30;;
9665;SDS011;4871;52.004;5.924;2023-02-22T00:49:00;20.10;;;11.30;;
9665;SDS011;4871;52.004;5.924;2023-02-22T00:50:00;20.10;;;11.30;;
9665;SDS011;4871;52.004;5.924;2023-02-22T00:51:00;20.10;;;11.30;;
9665;SDS011;4871;52.004;5.924;2023-02-22T00:52:08;20.10;;;11.30;;
9665;SDS011;4871;52.004;5.924;2023-02-22T00:53:01;20.10;;;11.30;;
9665;SDS011;4871;52.004;5.924;2023-02-22T00:54:00;20.10;;;11.30;;
9665;SDS011;4871;52.004;5.924;2023-02-22T00:55:00;20.10;;;11.30;;
9665;SDS011;4871;52.004;5.924;2023-02-22T00:56:00;20.10;;;11.30;;
9665;SDS011;4871;52.004;5.924;2023-02-22T00:57:00;20.10;;;11.90;;
9665;SDS011;4871;52.004;5.924;2023-02-22T00:58:01;20.10;;;11.90;;
9665;SDS011;4871;52.004;5.924;2023-02-22T00:59:00;20.10;;;11.90;;
9665;SDS011;4871;52.004;5.924;2023-02-22T01:00:14;20.10;;;11.90;;
9665;SDS011;4871;52.004;5.924;2023-02-22T01:01:00;20.10;;;11.90;;
9665;SDS011;4871;52.004;5.924;2023-02-22T01:02:00;20.10;;;11.90;;
9665;SDS011;4871;52.004;5.924;2023-02-22T01:03:00;20.10;;;11.90;;
9665;SDS011;4871;52.004;5.924;2023-02-22T01:04:00;20.10;;;11.90;;
9665;SDS011;4871;52.004;5.924;2023-02-22T01:05:00;20.10;;;11.90;;
9665;SDS011;4871;52.004;5.924;2023-02-22T01:06:01;20.10;;;11.90;;
9665;SDS011;4871;52.004;5.924;2023-02-22T01:07:00;20.10;;;11.90;;
9665;SDS011;4871;52.004;5.924;2023-02-22T01:08:08;20.10;;;11.90;;
9665;SDS011;4871;52.004;5.924;2023-02-22T01:09:01;20.10;;;11.90;;
9665;SDS011;4871;52.004;5.924;2023-02-22T01:10:00;20.10;;;11.90;;
9665;SDS011;4871;52.004;5.924;2023-02-22T01:11:00;20.10;;;11.90;;
9665;SDS011;4871;52.004;5.924;2023-02-22T01:12:07;20.10;;;11.90;;
9665;SDS011;4871;52.004;5.924;2023-02-22T01:13:00;20.10;;;11.90;;
9665;SDS011;4871;52.004;5.924;2023-02-22T01:14:00;20.10;;;11.90;;
9665;SDS011;4871;52.004;5.924;2023-02-22T01:15:00;20.10;;;11.90;;
9665;SDS011;4871;52.004;5.924;2023-02-22T01:16:00;20.10;;;11.90;;
9665;SDS011;4871;52.004;5.924;2023-02-22T01:17:00;20.10;;;11.90;;
9665;SDS011;4871;52.004;5.924;2023-02-22T01:18:00;20.10;;;11.90;;
9665;SDS011;4871;52.004;5.924;2023-02-22T01:19:00;20.10;;;11.90;;
9665;SDS011;4871;52.004;5.924;2023-02-22T01:20:00;20.10;;;11.90;;
9665;SDS011;4871;52.004;5.924;2023-02-22T01:21:00;20.10;;;11.90;;
9665;SDS011;4871;52.004;5.924;2023-02-22T01:22:07;20.10;;;11.90;;
9665;SDS011;4871;52.004;5.924;2023-02-22T01:23:01;20.10;;;11.90;;
9665;SDS011;4871;52.004;5.924;2023-02-22T01:24:07;20.10;;;11.90;;
9665;SDS011;4871;52.004;5.924;2023-02-22T01:25:00;20.10;;;11.90;;
9665;SDS011;4871;52.004;5.924;2023-02-22T01:26:00;20.10;;;11.90;;
9665;SDS011;4871;52.004;5.924;2023-02-22T01:27:01;22.80;;;13.30;;
9665;SDS011;4871;52.004;5.924;2023-02-22T01:28:07;22.80;;;13.30;;
9665;SDS011;4871;52.004;5.924;2023-02-22T01:29:00;22.80;;;13.30;;
9665;SDS011;4871;52.004;5.924;2023-02-22T01:30:00;22.80;;;13.30;;
9665;SDS011;4871;52.004;5.924;2023-02-22T01:31:01;22.80;;;13.30;;
9665;SDS011;4871;52.004;5.924;2023-02-22T01:32:00;22.80;;;13.30;;
9665;SDS011;4871;52.004;5.924;2023-02-22T01:33:01;22.80;;;13.30;;
9665;SDS011;4871;52.004;5.924;2023-02-22T01:34:00;22.80;;;13.30;;
9665;SDS011;4871;52.004;5.924;2023-02-22T01:35:00;22.80;;;13.30;;
9665;SDS011;4871;52.004;5.924;2023-02-22T01:36:00;22.80;;;13.30;;
9665;SDS011;4871;52.004;5.924;2023-02-22T01:37:01;22.80;;;13.30;;
9665;SDS011;4871;52.004;5.924;2023-02-22T01:38:00;22.80;;;13.30;;
9665;SDS011;4871;52.004;5.924;2023-02-22T01:39:00;22.80;;;13.30;;
9665;SDS011;4871;52.004;5.924;2023-02-22T01:40:00;22.80;;;13.30;;
9665;SDS011;4871;52.004;5.924;2023-02-22T01:41:00;22.80;;;13.30;;
9665;SDS011;4871;52.004;5.924;2023-02-22T01:42:00;22.80;;;13.30;;
9665;SDS011;4871;52.004;5.924;2023-02-22T01:43:01;22.80;;;13.30;;
9665;SDS011;4871;52.004;5.924;2023-02-22T01:44:15;22.80;;;13.30;;
9665;SDS011;4871;52.004;5.924;2023-02-22T01:46:01;22.80;;;13.30;;
9665;SDS011;4871;52.004;5.924;2023-02-22T01:47:08;22.80;;;13.30;;
9665;SDS011;4871;52.004;5.924;2023-02-22T01:48:01;22.80;;;13.30;;
9665;SDS011;4871;52.004;5.924;2023-02-22T01:49:09;22.80;;;13.30;;
9665;SDS011;4871;52.004;5.924;2023-02-22T01:50:00;22.80;;;13.30;;
9665;SDS011;4871;52.004;5.924;2023-02-22T01:51:01;22.80;;;13.30;;
9665;SDS011;4871;52.004;5.924;2023-02-22T01:52:01;22.80;;;13.30;;
9665;SDS011;4871;52.004;5.924;2023-02-22T01:53:07;22.80;;;13.30;;
9665;SDS011;4871;52.004;5.924;2023-02-22T01:54:00;22.80;;;13.30;;
9665;SDS011;4871;52.004;5.924;2023-02-22T01:55:00;22.80;;;13.30;;
9665;SDS011;4871;52.004;5.924;2023-02-22T01:56:00;22.80;;;13.30;;
9665;SDS011;4871;52.004;5.924;2023-02-22T01:57:11;23.00;;;12.70;;
9665;SDS011;4871;52.004;5.924;2023-02-22T01:58:00;23.00;;;12.70;;
9665;SDS011;4871;52.004;5.924;2023-02-22T01:59:01;23.00;;;12.70;;
9665;SDS011;4871;52.004;5.924;2023-02-22T02:00:03;23.00;;;12.70;;
9665;SDS011;4871;52.004;5.924;2023-02-22T02:01:00;23.00;;;12.70;;
9665;SDS011;4871;52.004;5.924;2023-02-22T02:03:00;23.00;;;12.70;;
9665;SDS011;4871;52.004;5.924;2023-02-22T02:04:01;23.00;;;12.70;;
9665;SDS011;4871;52.004;5.924;2023-02-22T02:05:00;23.00;;;12.70;;
9665;SDS011;4871;52.004;5.924;2023-02-22T02:06:01;23.00;;;12.70;;
9665;SDS011;4871;52.004;5.924;2023-02-22T02:07:08;23.00;;;12.70;;
9665;SDS011;4871;52.004;5.924;2023-02-22T02:08:04;23.00;;;12.70;;
9665;SDS011;4871;52.004;5.924;2023-02-22T02:09:11;23.00;;;12.70;;
9665;SDS011;4871;52.004;5.924;2023-02-22T02:10:00;23.00;;;12.70;;
9665;SDS011;4871;52.004;5.924;2023-02-22T02:11:08;23.00;;;12.70;;
9665;SDS011;4871;52.004;5.924;2023-02-22T02:12:01;23.00;;;12.70;;
9665;SDS011;4871;52.004;5.924;2023-02-22T02:13:09;23.00;;;12.70;;
9665;SDS011;4871;52.004;5.924;2023-02-22T02:14:00;23.00;;;12.70;;
9665;SDS011;4871;52.004;5.924;2023-02-22T02:15:16;23.00;;;12.70;;
9665;SDS011;4871;52.004;5.924;2023-02-22T02:16:00;23.00;;;12.70;;
9665;SDS011;4871;52.004;5.924;2023-02-22T02:17:00;23.00;;;12.70;;
9665;SDS011;4871;52.004;5.924;2023-02-22T02:18:00;23.00;;;12.70;;
9665;SDS011;4871;52.004;5.924;2023-02-22T02:19:08;23.00;;;12.70;;
9665;SDS011;4871;52.004;5.924;2023-02-22T02:20:01;23.00;;;12.70;;
9665;SDS011;4871;52.004;5.924;2023-02-22T02:21:23;23.00;;;12.70;;
9665;SDS011;4871;52.004;5.924;2023-02-22T02:22:07;23.00;;;12.70;;
9665;SDS011;4871;52.004;5.924;2023-02-22T02:23:07;23.00;;;12.70;;
9665;SDS011;4871;52.004;5.924;2023-02-22T02:24:11;23.00;;;12.70;;
9665;SDS011;4871;52.004;5.924;2023-02-22T02:25:21;23.00;;;12.70;;
9665;SDS011;4871;52.004;5.924;2023-02-22T02:27:10;21.60;;;12.40;;
9665;SDS011;4871;52.004;5.924;2023-02-22T02:28:04;21.60;;;12.40;;
9665;SDS011;4871;52.004;5.924;2023-02-22T02:29:16;21.60;;;12.40;;
9665;SDS011;4871;52.004;5.924;2023-02-22T02:30:09;21.60;;;12.40;;
9665;SDS011;4871;52.004;5.924;2023-02-22T02:31:14;21.60;;;12.40;;
9665;SDS011;4871;52.004;5.924;2023-02-22T02:33:08;21.60;;;12.40;;
9665;SDS011;4871;52.004;5.924;2023-02-22T02:34:01;21.60;;;12.40;;
9665;SDS011;4871;52.004;5.924;2023-02-22T02:35:08;21.60;;;12.40;;
9665;SDS011;4871;52.004;5.924;2023-02-22T02:36:02;21.60;;;12.40;;
9665;SDS011;4871;52.004;5.924;2023-02-22T02:37:09;21.60;;;12.40;;
9665;SDS011;4871;52.004;5.924;2023-02-22T02:38:01;21.60;;;12.40;;
9665;SDS011;4871;52.004;5.924;2023-02-22T02:39:02;21.60;;;12.40;;
9665;SDS011;4871;52.004;5.924;2023-02-22T02:40:03;21.60;;;12.40;;
9665;SDS011;4871;52.004;5.924;2023-02-22T02:41:08;21.60;;;12.40;;
9665;SDS011;4871;52.004;5.924;2023-02-22T02:42:01;21.60;;;12.40;;
9665;SDS011;4871;52.004;5.924;2023-02-22T02:43:11;21.60;;;12.40;;
9665;SDS011;4871;52.004;5.924;2023-02-22T02:44:00;21.60;;;12.40;;
9665;SDS011;4871;52.004;5.924;2023-02-22T02:45:10;21.60;;;12.40;;
9665;SDS011;4871;52.004;5.924;2023-02-22T02:46:01;21.60;;;12.40;;
9665;SDS011;4871;52.004;5.924;2023-02-22T02:47:00;21.60;;;12.40;;
9665;SDS011;4871;52.004;5.924;2023-02-22T02:48:00;21.60;;;12.40;;
9665;SDS011;4871;52.004;5.924;2023-02-22T02:49:07;21.60;;;12.40;;
9665;SDS011;4871;52.004;5.924;2023-02-22T02:50:01;21.60;;;12.40;;
9665;SDS011;4871;52.004;5.924;2023-02-22T02:51:06;21.60;;;12.40;;
9665;SDS011;4871;52.004;5.924;2023-02-22T02:52:00;21.60;;;12.40;;
9665;SDS011;4871;52.004;5.924;2023-02-22T02:53:01;21.60;;;12.40;;
9665;SDS011;4871;52.004;5.924;2023-02-22T02:54:00;21.60;;;12.40;;
9665;SDS011;4871;52.004;5.924;2023-02-22T02:55:00;21.60;;;12.40;;
9665;SDS011;4871;52.004;5.924;2023-02-22T02:56:00;21.60;;;12.40;;
9665;SDS011;4871;52.004;5.924;2023-02-22T02:57:08;30.80;;;14.60;;
9665;SDS011;4871;52.004;5.924;2023-02-22T02:58:00;30.80;;;14.60;;
9665;SDS011;4871;52.004;5.924;2023-02-22T02:59:00;30.80;;;14.60;;
9665;SDS011;4871;52.004;5.924;2023-02-22T03:00:00;30.80;;;14.60;;
9665;SDS011;4871;52.004;5.924;2023-02-22T03:01:08;30.80;;;14.60;;
9665;SDS011;4871;52.004;5.924;2023-02-22T03:02:06;30.80;;;14.60;;
9665;SDS011;4871;52.004;5.924;2023-02-22T03:03:08;30.80;;;14.60;;
9665;SDS011;4871;52.004;5.924;2023-02-22T03:04:04;30.80;;;14.60;;
9665;SDS011;4871;52.004;5.924;2023-02-22T03:05:09;30.80;;;14.60;;
9665;SDS011;4871;52.004;5.924;2023-02-22T03:06:04;30.80;;;14.60;;
9665;SDS011;4871;52.004;5.924;2023-02-22T03:07:10;30.80;;;14.60;;
9665;SDS011;4871;52.004;5.924;2023-02-22T03:08:01;30.80;;;14.60;;
9665;SDS011;4871;52.004;5.924;2023-02-22T03:09:10;30.80;;;14.60;;
9665;SDS011;4871;52.004;5.924;2023-02-22T03:10:04;30.80;;;14.60;;
9665;SDS011;4871;52.004;5.924;2023-02-22T03:11:14;30.80;;;14.60;;
9665;SDS011;4871;52.004;5.924;2023-02-22T03:12:04;30.80;;;14.60;;
9665;SDS011;4871;52.004;5.924;2023-02-22T03:13:02;30.80;;;14.60;;
9665;SDS011;4871;52.004;5.924;2023-02-22T03:14:01;30.80;;;14.60;;
9665;SDS011;4871;52.004;5.924;2023-02-22T03:15:11;30.80;;;14.60;;
9665;SDS011;4871;52.004;5.924;2023-02-22T03:16:02;30.80;;;14.60;;
9665;SDS011;4871;52.004;5.924;2023-02-22T03:17:00;30.80;;;14.60;;
9665;SDS011;4871;52.004;5.924;2023-02-22T03:18:01;30.80;;;14.60;;
9665;SDS011;4871;52.004;5.924;2023-02-22T03:19:07;30.80;;;14.60;;
9665;SDS011;4871;52.004;5.924;2023-02-22T03:20:03;30.80;;;14.60;;
9665;SDS011;4871;52.004;5.924;2023-02-22T03:21:08;30.80;;;14.60;;
9665;SDS011;4871;52.004;5.924;2023-02-22T03:22:01;30.80;;;14.60;;
9665;SDS011;4871;52.004;5.924;2023-02-22T03:23:09;30.80;;;14.60;;
9665;SDS011;4871;52.004;5.924;2023-02-22T03:24:05;30.80;;;14.60;;
9665;SDS011;4871;52.004;5.924;2023-02-22T03:25:07;30.80;;;14.60;;
9665;SDS011;4871;52.004;5.924;2023-02-22T03:26:01;27.10;;;15.10;;
9665;SDS011;4871;52.004;5.924;2023-02-22T03:27:09;27.10;;;15.10;;
9665;SDS011;4871;52.004;5.924;2023-02-22T03:28:02;27.10;;;15.10;;
9665;SDS011;4871;52.004;5.924;2023-02-22T03:29:07;27.10;;;15.10;;
9665;SDS011;4871;52.004;5.924;2023-02-22T03:30:02;27.10;;;15.10;;
9665;SDS011;4871;52.004;5.924;2023-02-22T03:31:10;27.10;;;15.10;;
9665;SDS011;4871;52.004;5.924;2023-02-22T03:32:00;27.10;;;15.10;;
9665;SDS011;4871;52.004;5.924;2023-02-22T03:33:08;27.10;;;15.10;;
9665;SDS011;4871;52.004;5.924;2023-02-22T03:34:00;27.10;;;15.10;;
9665;SDS011;4871;52.004;5.924;2023-02-22T03:35:07;27.10;;;15.10;;
9665;SDS011;4871;52.004;5.924;2023-02-22T03:36:02;27.10;;;15.10;;
9665;SDS011;4871;52.004;5.924;2023-02-22T03:37:01;27.10;;;15.10;;
9665;SDS011;4871;52.004;5.924;2023-02-22T03:38:01;27.10;;;15.10;;
9665;SDS011;4871;52.004;5.924;2023-02-22T03:39:00;27.10;;;15.10;;
9665;SDS011;4871;52.004;5.924;2023-02-22T03:40:01;27.10;;;15.10;;
9665;SDS011;4871;52.004;5.924;2023-02-22T03:41:06;27.10;;;15.10;;
9665;SDS011;4871;52.004;5.924;2023-02-22T03:42:02;27.10;;;15.10;;
9665;SDS011;4871;52.004;5.924;2023-02-22T03:43:08;27.10;;;15.10;;
9665;SDS011;4871;52.004;5.924;2023-02-22T03:44:01;27.10;;;15.10;;
9665;SDS011;4871;52.004;5.924;2023-02-22T03:45:01;27.10;;;15.10;;
9665;SDS011;4871;52.004;5.924;2023-02-22T03:46:00;27.10;;;15.10;;
9665;SDS011;4871;52.004;5.924;2023-02-22T03:47:08;27.10;;;15.10;;
9665;SDS011;4871;52.004;5.924;2023-02-22T03:48:02;27.10;;;15.10;;
9665;SDS011;4871;52.004;5.924;2023-02-22T03:49:08;27.10;;;15.10;;
9665;SDS011;4871;52.004;5.924;2023-02-22T03:50:02;27.10;;;15.10;;
9665;SDS011;4871;52.004;5.924;2023-02-22T03:51:01;27.10;;;15.10;;
9665;SDS011;4871;52.004;5.924;2023-02-22T03:52:00;27.10;;;15.10;;
9665;SDS011;4871;52.004;5.924;2023-02-22T03:53:00;27.10;;;15.10;;
9665;SDS011;4871;52.004;5.924;2023-02-22T03:54:00;27.10;;;15.10;;
9665;SDS011;4871;52.004;5.924;2023-02-22T03:55:00;27.10;;;15.10;;
9665;SDS011;4871;52.004;5.924;2023-02-22T03:56:00;28.70;;;15.00;;
9665;SDS011;4871;52.004;5.924;2023-02-22T03:57:03;28.70;;;15.00;;
9665;SDS011;4871;52.004;5.924;2023-02-22T03:58:01;28.70;;;15.00;;
9665;SDS011;4871;52.004;5.924;2023-02-22T03:59:00;28.70;;;15.00;;
9665;SDS011;4871;52.004;5.924;2023-02-22T04:00:00;28.70;;;15.00;;
9665;SDS011;4871;52.004;5.924;2023-02-22T04:01:00;28.70;;;15.00;;
9665;SDS011;4871;52.004;5.924;2023-02-22T04:02:01;28.70;;;15.00;;
9665;SDS011;4871;52.004;5.924;2023-02-22T04:03:00;28.70;;;15.00;;
9665;SDS011;4871;52.004;5.924;2023-02-22T04:04:00;28.70;;;15.00;;
9665;SDS011;4871;52.004;5.924;2023-02-22T04:05:00;28.70;;;15.00;;
9665;SDS011;4871;52.004;5.924;2023-02-22T04:06:00;28.70;;;15.00;;
9665;SDS011;4871;52.004;5.924;2023-02-22T04:07:00;28.70;;;15.00;;
9665;SDS011;4871;52.004;5.924;2023-02-22T04:08:00;28.70;;;15.00;;
9665;SDS011;4871;52.004;5.924;2023-02-22T04:09:00;28.70;;;15.00;;
9665;SDS011;4871;52.004;5.924;2023-02-22T04:10:08;28.70;;;15.00;;
9665;SDS011;4871;52.004;5.924;2023-02-22T04:11:00;28.70;;;15.00;;
9665;SDS011;4871;52.004;5.924;2023-02-22T04:12:08;28.70;;;15.00;;
9665;SDS011;4871;52.004;5.924;2023-02-22T04:13:00;28.70;;;15.00;;
9665;SDS011;4871;52.004;5.924;2023-02-22T04:14:00;28.70;;;15.00;;
9665;SDS011;4871;52.004;5.924;2023-02-22T04:15:00;28.70;;;15.00;;
9665;SDS011;4871;52.004;5.924;2023-02-22T04:16:00;28.70;;;15.00;;
9665;SDS011;4871;52.004;5.924;2023-02-22T04:17:00;28.70;;;15.00;;
9665;SDS011;4871;52.004;5.924;2023-02-22T04:18:00;28.70;;;15.00;;
9665;SDS011;4871;52.004;5.924;2023-02-22T04:19:00;28.70;;;15.00;;
9665;SDS011;4871;52.004;5.924;2023-02-22T04:20:00;28.70;;;15.00;;
9665;SDS011;4871;52.004;5.924;2023-02-22T04:21:00;28.70;;;15.00;;
9665;SDS011;4871;52.004;5.924;2023-02-22T04:22:00;28.70;;;15.00;;
9665;SDS011;4871;52.004;5.924;2023-02-22T04:23:00;28.70;;;15.00;;
9665;SDS011;4871;52.004;5.924;2023-02-22T04:24:00;28.70;;;15.00;;
9665;SDS011;4871;52.004;5.924;2023-02-22T04:25:00;28.70;;;15.00;;
9665;SDS011;4871;52.004;5.924;2023-02-22T04:26:00;30.10;;;16.00;;
9665;SDS011;4871;52.004;5.924;2023-02-22T04:27:00;30.10;;;16.00;;
9665;SDS011;4871;52.004;5.924;2023-02-22T04:28:00;30.10;;;16.00;;
9665;SDS011;4871;52.004;5.924;2023-02-22T04:29:00;30.10;;;16.00;;
9665;SDS011;4871;52.004;5.924;2023-02-22T04:30:00;30.10;;;16.00;;
9665;SDS011;4871;52.004;5.924;2023-02-22T04:31:00;30.10;;;16.00;;
9665;SDS011;4871;52.004;5.924;2023-02-22T04:32:00;30.10;;;16.00;;
9665;SDS011;4871;52.004;5.924;2023-02-22T04:33:00;30.10;;;16.00;;
9665;SDS011;4871;52.004;5.924;2023-02-22T04:34:00;30.10;;;16.00;;
9665;SDS011;4871;52.004;5.924;2023-02-22T04:35:00;30.10;;;16.00;;
9665;SDS011;4871;52.004;5.924;2023-02-22T04:36:00;30.10;;;16.00;;
9665;SDS011;4871;52.004;5.924;2023-02-22T04:37:01;30.10;;;16.00;;
9665;SDS011;4871;52.004;5.924;2023-02-22T04:38:00;30.10;;;16.00;;
9665;SDS011;4871;52.004;5.924;2023-02-22T04:39:00;30.10;;;16.00;;
9665;SDS011;4871;52.004;5.924;2023-02-22T04:40:00;30.10;;;16.00;;
9665;SDS011;4871;52.004;5.924;2023-02-22T04:41:00;30.10;;;16.00;;
9665;SDS011;4871;52.004;5.924;2023-02-22T04:42:07;30.10;;;16.00;;
9665;SDS011;4871;52.004;5.924;2023-02-22T04:43:00;30.10;;;16.00;;
9665;SDS011;4871;52.004;5.924;2023-02-22T04:44:00;30.10;;;16.00;;
9665;SDS011;4871;52.004;5.924;2023-02-22T04:45:00;30.10;;;16.00;;
9665;SDS011;4871;52.004;5.924;2023-02-22T04:46:00;30.10;;;16.00;;
9665;SDS011;4871;52.004;5.924;2023-02-22T04:47:00;30.10;;;16.00;;
9665;SDS011;4871;52.004;5.924;2023-02-22T04:48:00;30.10;;;16.00;;
9665;SDS011;4871;52.004;5.924;2023-02-22T04:49:00;30.10;;;16.00;;
9665;SDS011;4871;52.004;5.924;2023-02-22T04:50:00;30.10;;;16.00;;
9665;SDS011;4871;52.004;5.924;2023-02-22T04:51:00;30.10;;;16.00;;
9665;SDS011;4871;52.004;5.924;2023-02-22T04:52:00;30.10;;;16.00;;
9665;SDS011;4871;52.004;5.924;2023-02-22T04:53:00;30.10;;;16.00;;
9665;SDS011;4871;52.004;5.924;2023-02-22T04:54:07;30.10;;;16.00;;
9665;SDS011;4871;52.004;5.924;2023-02-22T04:55:00;30.10;;;16.00;;
9665;SDS011;4871;52.004;5.924;2023-02-22T04:56:01;29.90;;;15.50;;
9665;SDS011;4871;52.004;5.924;2023-02-22T04:57:00;29.90;;;15.50;;
9665;SDS011;4871;52.004;5.924;2023-02-22T04:58:00;29.90;;;15.50;;
9665;SDS011;4871;52.004;5.924;2023-02-22T04:59:00;29.90;;;15.50;;
9665;SDS011;4871;52.004;5.924;2023-02-22T05:00:00;29.90;;;15.50;;
9665;SDS011;4871;52.004;5.924;2023-02-22T05:01:00;29.90;;;15.50;;
9665;SDS011;4871;52.004;5.924;2023-02-22T05:02:06;29.90;;;15.50;;
9665;SDS011;4871;52.004;5.924;2023-02-22T05:03:00;29.90;;;15.50;;
9665;SDS011;4871;52.004;5.924;2023-02-22T05:04:00;29.90;;;15.50;;
9665;SDS011;4871;52.004;5.924;2023-02-22T05:05:00;29.90;;;15.50;;
9665;SDS011;4871;52.004;5.924;2023-02-22T05:06:00;29.90;;;15.50;;
9665;SDS011;4871;52.004;5.924;2023-02-22T05:07:00;29.90;;;15.50;;
9665;SDS011;4871;52.004;5.924;2023-02-22T05:08:00;29.90;;;15.50;;
9665;SDS011;4871;52.004;5.924;2023-02-22T05:09:00;29.90;;;15.50;;
9665;SDS011;4871;52.004;5.924;2023-02-22T05:10:09;29.90;;;15.50;;
9665;SDS011;4871;52.004;5.924;2023-02-22T05:11:00;29.90;;;15.50;;
9665;SDS011;4871;52.004;5.924;2023-02-22T05:12:00;29.90;;;15.50;;
9665;SDS011;4871;52.004;5.924;2023-02-22T05:13:00;29.90;;;15.50;;
9665;SDS011;4871;52.004;5.924;2023-02-22T05:14:00;29.90;;;15.50;;
9665;SDS011;4871;52.004;5.924;2023-02-22T05:15:00;29.90;;;15.50;;
9665;SDS011;4871;52.004;5.924;2023-02-22T05:16:07;29.90;;;15.50;;
9665;SDS011;4871;52.004;5.924;2023-02-22T05:17:00;29.90;;;15.50;;
9665;SDS011;4871;52.004;5.924;2023-02-22T05:18:00;29.90;;;15.50;;
9665;SDS011;4871;52.004;5.924;2023-02-22T05:19:00;29.90;;;15.50;;
9665;SDS011;4871;52.004;5.924;2023-02-22T05:20:00;29.90;;;15.50;;
9665;SDS011;4871;52.004;5.924;2023-02-22T05:21:00;29.90;;;15.50;;
9665;SDS011;4871;52.004;5.924;2023-02-22T05:22:00;29.90;;;15.50;;
9665;SDS011;4871;52.004;5.924;2023-02-22T05:23:00;29.90;;;15.50;;
9665;SDS011;4871;52.004;5.924;2023-02-22T05:24:00;29.90;;;15.50;;
9665;SDS011;4871;52.004;5.924;2023-02-22T05:25:00;29.90;;;15.50;;
9665;SDS011;4871;52.004;5.924;2023-02-22T05:26:00;38.20;;;18.40;;
9665;SDS011;4871;52.004;5.924;2023-02-22T05:27:00;38.20;;;18.40;;
9665;SDS011;4871;52.004;5.924;2023-02-22T05:28:09;38.20;;;18.40;;
9665;SDS011;4871;52.004;5.924;2023-02-22T05:29:00;38.20;;;18.40;;
9665;SDS011;4871;52.004;5.924;2023-02-22T05:30:00;38.20;;;18.40;;
9665;SDS011;4871;52.004;5.924;2023-02-22T05:31:00;38.20;;;18.40;;
9665;SDS011;4871;52.004;5.924;2023-02-22T05:32:08;38.20;;;18.40;;
9665;SDS011;4871;52.004;5.924;2023-02-22T05:33:00;38.20;;;18.40;;
9665;SDS011;4871;52.004;5.924;2023-02-22T05:34:00;38.20;;;18.40;;
9665;SDS011;4871;52.004;5.924;2023-02-22T05:35:00;38.20;;;18.40;;
9665;SDS011;4871;52.004;5.924;2023-02-22T05:36:00;38.20;;;18.40;;
9665;SDS011;4871;52.004;5.924;2023-02-22T05:37:00;38.20;;;18.40;;
9665;SDS011;4871;52.004;5.924;2023-02-22T05:38:09;38.20;;;18.40;;
9665;SDS011;4871;52.004;5.924;2023-02-22T05:39:00;38.20;;;18.40;;
9665;SDS011;4871;52.004;5.924;2023-02-22T05:40:00;38.20;;;18.40;;
9665;SDS011;4871;52.004;5.924;2023-02-22T05:41:00;38.20;;;18.40;;
9665;SDS011;4871;52.004;5.924;2023-02-22T05:42:00;38.20;;;18.40;;
9665;SDS011;4871;52.004;5.924;2023-02-22T05:43:01;38.20;;;18.40;;
9665;SDS011;4871;52.004;5.924;2023-02-22T05:44:08;38.20;;;18.40;;
9665;SDS011;4871;52.004;5.924;2023-02-22T05:45:00;38.20;;;18.40;;
9665;SDS011;4871;52.004;5.924;2023-02-22T05:46:00;38.20;;;18.40;;
9665;SDS011;4871;52.004;5.924;2023-02-22T05:47:00;38.20;;;18.40;;
9665;SDS011;4871;52.004;5.924;2023-02-22T05:48:07;38.20;;;18.40;;
9665;SDS011;4871;52.004;5.924;2023-02-22T05:49:00;38.20;;;18.40;;
9665;SDS011;4871;52.004;5.924;2023-02-22T05:50:00;38.20;;;18.40;;
9665;SDS011;4871;52.004;5.924;2023-02-22T05:51:00;38.20;;;18.40;;
9665;SDS011;4871;52.004;5.924;2023-02-22T05:52:00;38.20;;;18.40;;
9665;SDS011;4871;52.004;5.924;2023-02-22T05:53:00;38.20;;;18.40;;
9665;SDS011;4871;52.004;5.924;2023-02-22T05:54:00;38.20;;;18.40;;
9665;SDS011;4871;52.004;5.924;2023-02-22T05:55:00;38.20;;;18.40;;
9665;SDS011;4871;52.004;5.924;2023-02-22T05:56:00;43.10;;;20.90;;
9665;SDS011;4871;52.004;5.924;2023-02-22T05:57:00;43.10;;;20.90;;
9665;SDS011;4871;52.004;5.924;2023-02-22T05:58:00;43.10;;;20.90;;
9665;SDS011;4871;52.004;5.924;2023-02-22T05:59:00;43.10;;;20.90;;
9665;SDS011;4871;52.004;5.924;2023-02-22T06:00:00;43.10;;;20.90;;
9665;SDS011;4871;52.004;5.924;2023-02-22T06:01:00;43.10;;;20.90;;
9665;SDS011;4871;52.004;5.924;2023-02-22T06:02:00;43.10;;;20.90;;
9665;SDS011;4871;52.004;5.924;2023-02-22T06:03:01;43.10;;;20.90;;
9665;SDS011;4871;52.004;5.924;2023-02-22T06:04:00;43.10;;;20.90;;
9665;SDS011;4871;52.004;5.924;2023-02-22T06:05:00;43.10;;;20.90;;